sensor_id;sensor_type;location;lat;lon;timestamp;P1;durP1;ratioP1;P2;durP2;ratioP2
55461;SDS011;41327;45.102;20.624;2022-09-28T00:01:34;2.28;;;1.40;;
55461;SDS011;41327;45.102;20.624;2022-09-28T00:03:59;4.38;;;2.22;;
55461;SDS011;41327;45.102;20.624;2022-09-28T00:06:26;5.57;;;2.22;;
55461;SDS011;41327;45.102;20.624;2022-09-28T00:08:54;4.03;;;2.20;;
55461;SDS011;41327;45.102;20.624;2022-09-28T00:11:20;3.15;;;1.70;;
55461;SDS011;41327;45.102;20.624;2022-09-28T00:13:50;3.78;;;1.98;;
55461;SDS011;41327;45.102;20.624;2022-09-28T00:16:17;4.13;;;1.90;;
55461;SDS011;41327;45.102;20.624;2022-09-28T00:18:45;4.78;;;2.10;;
55461;SDS011;41327;45.102;20.624;2022-09-28T00:21:12;3.47;;;1.88;;
55461;SDS011;41327;45.102;20.624;2022-09-28T00:23:39;3.15;;;1.83;;
55461;SDS011;41327;45.102;20.624;2022-09-28T00:26:25;2.60;;;1.60;;
55461;SDS011;41327;45.102;20.624;2022-09-28T00:28:55;2.92;;;1.90;;
55461;SDS011;41327;45.102;20.624;2022-09-28T00:31:25;4.22;;;1.70;;
55461;SDS011;41327;45.102;20.624;2022-09-28T00:33:53;3.92;;;1.63;;
55461;SDS011;41327;45.102;20.624;2022-09-28T00:36:22;3.80;;;2.10;;
55461;SDS011;41327;45.102;20.624;2022-09-28T00:38:48;3.45;;;2.00;;
55461;SDS011;41327;45.102;20.624;2022-09-28T00:41:14;3.63;;;1.92;;
55461;SDS011;41327;45.102;20.624;2022-09-28T00:43:40;2.55;;;1.65;;
55461;SDS011;41327;45.102;20.624;2022-09-28T00:46:11;4.32;;;1.80;;
55461;SDS011;41327;45.102;20.624;2022-09-28T00:48:42;4.05;;;1.65;;
55461;SDS011;41327;45.102;20.624;2022-09-28T00:51:22;3.28;;;1.67;;
55461;SDS011;41327;45.102;20.624;2022-09-28T00:53:49;3.95;;;1.67;;
55461;SDS011;41327;45.102;20.624;2022-09-28T00:56:16;3.35;;;1.55;;
55461;SDS011;41327;45.102;20.624;2022-09-28T00:58:51;4.38;;;2.03;;
55461;SDS011;41327;45.102;20.624;2022-09-28T01:01:17;3.08;;;1.63;;
55461;SDS011;41327;45.102;20.624;2022-09-28T01:03:43;4.85;;;2.00;;
55461;SDS011;41327;45.102;20.624;2022-09-28T01:06:10;3.95;;;1.80;;
55461;SDS011;41327;45.102;20.624;2022-09-28T01:08:41;2.28;;;1.67;;
55461;SDS011;41327;45.102;20.624;2022-09-28T01:11:08;4.63;;;1.90;;
55461;SDS011;41327;45.102;20.624;2022-09-28T01:13:34;3.30;;;1.63;;
55461;SDS011;41327;45.102;20.624;2022-09-28T01:24:22;2.70;;;1.98;;
55461;SDS011;41327;45.102;20.624;2022-09-28T01:32:09;2.65;;;1.80;;
55461;SDS011;41327;45.102;20.624;2022-09-28T01:34:38;3.67;;;1.90;;
55461;SDS011;41327;45.102;20.624;2022-09-28T01:37:08;5.75;;;2.25;;
55461;SDS011;41327;45.102;20.624;2022-09-28T01:39:36;3.97;;;2.20;;
55461;SDS011;41327;45.102;20.624;2022-09-28T01:42:07;2.55;;;1.73;;
55461;SDS011;41327;45.102;20.624;2022-09-28T01:44:45;2.65;;;1.42;;
55461;SDS011;41327;45.102;20.624;2022-09-28T01:47:13;2.85;;;1.88;;
55461;SDS011;41327;45.102;20.624;2022-09-28T01:49:40;3.35;;;2.00;;
55461;SDS011;41327;45.102;20.624;2022-09-28T01:52:17;3.45;;;2.50;;
55461;SDS011;41327;45.102;20.624;2022-09-28T01:54:48;2.53;;;1.70;;
55461;SDS011;41327;45.102;20.624;2022-09-28T01:59:47;3.30;;;1.88;;
55461;SDS011;41327;45.102;20.624;2022-09-28T02:02:24;3.47;;;2.42;;
55461;SDS011;41327;45.102;20.624;2022-09-28T02:04:55;4.13;;;2.33;;
55461;SDS011;41327;45.102;20.624;2022-09-28T02:07:26;10.57;;;2.70;;
55461;SDS011;41327;45.102;20.624;2022-09-28T02:09:57;4.30;;;2.08;;
55461;SDS011;41327;45.102;20.624;2022-09-28T02:12:35;4.30;;;2.72;;
55461;SDS011;41327;45.102;20.624;2022-09-28T02:15:25;3.97;;;2.35;;
55461;SDS011;41327;45.102;20.624;2022-09-28T02:17:55;3.72;;;2.15;;
55461;SDS011;41327;45.102;20.624;2022-09-28T02:20:20;3.00;;;2.00;;
55461;SDS011;41327;45.102;20.624;2022-09-28T02:22:50;3.63;;;2.60;;
55461;SDS011;41327;45.102;20.624;2022-09-28T02:25:36;4.15;;;2.58;;
55461;SDS011;41327;45.102;20.624;2022-09-28T02:28:09;3.33;;;2.35;;
55461;SDS011;41327;45.102;20.624;2022-09-28T02:30:36;3.70;;;2.22;;
55461;SDS011;41327;45.102;20.624;2022-09-28T02:36:01;2.88;;;2.33;;
55461;SDS011;41327;45.102;20.624;2022-09-28T02:38:28;4.85;;;2.95;;
55461;SDS011;41327;45.102;20.624;2022-09-28T02:41:02;5.85;;;3.15;;
55461;SDS011;41327;45.102;20.624;2022-09-28T02:48:39;4.35;;;2.90;;
55461;SDS011;41327;45.102;20.624;2022-09-28T03:10:48;4.80;;;2.70;;
55461;SDS011;41327;45.102;20.624;2022-09-28T03:13:12;5.55;;;3.42;;
55461;SDS011;41327;45.102;20.624;2022-09-28T03:15:38;4.07;;;2.95;;
55461;SDS011;41327;45.102;20.624;2022-09-28T03:18:06;4.78;;;2.90;;
55461;SDS011;41327;45.102;20.624;2022-09-28T03:20:32;6.07;;;3.40;;
55461;SDS011;41327;45.102;20.624;2022-09-28T03:22:58;4.22;;;2.80;;
55461;SDS011;41327;45.102;20.624;2022-09-28T03:25:24;4.68;;;3.30;;
55461;SDS011;41327;45.102;20.624;2022-09-28T03:27:49;6.25;;;3.60;;
55461;SDS011;41327;45.102;20.624;2022-09-28T03:30:15;7.93;;;4.80;;
55461;SDS011;41327;45.102;20.624;2022-09-28T03:32:40;25.52;;;16.08;;
55461;SDS011;41327;45.102;20.624;2022-09-28T03:35:07;14.65;;;9.32;;
55461;SDS011;41327;45.102;20.624;2022-09-28T03:37:33;9.50;;;5.45;;
55461;SDS011;41327;45.102;20.624;2022-09-28T03:39:59;10.38;;;5.70;;
55461;SDS011;41327;45.102;20.624;2022-09-28T03:42:25;9.45;;;5.75;;
55461;SDS011;41327;45.102;20.624;2022-09-28T03:44:50;5.70;;;3.55;;
55461;SDS011;41327;45.102;20.624;2022-09-28T03:47:16;3.78;;;2.90;;
55461;SDS011;41327;45.102;20.624;2022-09-28T03:49:42;9.45;;;4.40;;
55461;SDS011;41327;45.102;20.624;2022-09-28T03:52:08;10.30;;;5.70;;
55461;SDS011;41327;45.102;20.624;2022-09-28T03:54:33;7.18;;;5.10;;
55461;SDS011;41327;45.102;20.624;2022-09-28T03:56:59;12.82;;;7.85;;
55461;SDS011;41327;45.102;20.624;2022-09-28T03:59:24;11.27;;;6.63;;
55461;SDS011;41327;45.102;20.624;2022-09-28T04:01:50;8.27;;;3.72;;
55461;SDS011;41327;45.102;20.624;2022-09-28T04:04:16;7.22;;;3.30;;
55461;SDS011;41327;45.102;20.624;2022-09-28T04:06:41;3.90;;;2.58;;
55461;SDS011;41327;45.102;20.624;2022-09-28T04:09:07;5.30;;;2.58;;
55461;SDS011;41327;45.102;20.624;2022-09-28T04:11:33;4.75;;;2.92;;
55461;SDS011;41327;45.102;20.624;2022-09-28T04:13:58;5.65;;;3.22;;
55461;SDS011;41327;45.102;20.624;2022-09-28T04:16:24;32.13;;;20.23;;
55461;SDS011;41327;45.102;20.624;2022-09-28T04:18:50;47.55;;;31.92;;
55461;SDS011;41327;45.102;20.624;2022-09-28T04:21:16;16.20;;;11.88;;
55461;SDS011;41327;45.102;20.624;2022-09-28T04:23:43;23.13;;;15.75;;
55461;SDS011;41327;45.102;20.624;2022-09-28T04:26:13;14.45;;;8.60;;
55461;SDS011;41327;45.102;20.624;2022-09-28T04:28:43;14.43;;;8.10;;
55461;SDS011;41327;45.102;20.624;2022-09-28T04:33:55;8.30;;;4.35;;
55461;SDS011;41327;45.102;20.624;2022-09-28T04:36:21;11.98;;;5.13;;
55461;SDS011;41327;45.102;20.624;2022-09-28T04:38:46;18.10;;;7.65;;
55461;SDS011;41327;45.102;20.624;2022-09-28T04:41:12;44.47;;;15.07;;
55461;SDS011;41327;45.102;20.624;2022-09-28T04:43:37;49.17;;;18.48;;
55461;SDS011;41327;45.102;20.624;2022-09-28T04:46:03;70.78;;;24.60;;
55461;SDS011;41327;45.102;20.624;2022-09-28T04:48:31;52.53;;;18.33;;
55461;SDS011;41327;45.102;20.624;2022-09-28T04:50:58;18.42;;;7.22;;
55461;SDS011;41327;45.102;20.624;2022-09-28T04:53:24;12.30;;;6.10;;
55461;SDS011;41327;45.102;20.624;2022-09-28T04:55:57;8.82;;;5.30;;
55461;SDS011;41327;45.102;20.624;2022-09-28T04:58:27;8.07;;;4.18;;
55461;SDS011;41327;45.102;20.624;2022-09-28T05:00:56;8.93;;;5.18;;
55461;SDS011;41327;45.102;20.624;2022-09-28T05:03:24;10.63;;;6.32;;
55461;SDS011;41327;45.102;20.624;2022-09-28T05:05:49;13.20;;;5.70;;
55461;SDS011;41327;45.102;20.624;2022-09-28T05:08:15;12.82;;;6.55;;
55461;SDS011;41327;45.102;20.624;2022-09-28T05:10:41;15.75;;;7.90;;
55461;SDS011;41327;45.102;20.624;2022-09-28T05:13:08;14.07;;;7.28;;
55461;SDS011;41327;45.102;20.624;2022-09-28T05:15:35;9.63;;;5.22;;
55461;SDS011;41327;45.102;20.624;2022-09-28T05:18:04;10.60;;;5.15;;
55461;SDS011;41327;45.102;20.624;2022-09-28T05:20:30;7.80;;;4.93;;
55461;SDS011;41327;45.102;20.624;2022-09-28T05:22:56;7.20;;;3.60;;
55461;SDS011;41327;45.102;20.624;2022-09-28T05:25:21;6.90;;;3.20;;
55461;SDS011;41327;45.102;20.624;2022-09-28T05:27:47;3.88;;;2.78;;
55461;SDS011;41327;45.102;20.624;2022-09-28T05:30:13;4.68;;;3.28;;
55461;SDS011;41327;45.102;20.624;2022-09-28T05:32:42;5.53;;;2.95;;
55461;SDS011;41327;45.102;20.624;2022-09-28T05:35:10;4.07;;;2.80;;
55461;SDS011;41327;45.102;20.624;2022-09-28T05:37:36;3.35;;;2.58;;
55461;SDS011;41327;45.102;20.624;2022-09-28T05:40:02;6.80;;;2.55;;
55461;SDS011;41327;45.102;20.624;2022-09-28T05:42:29;4.55;;;2.85;;
55461;SDS011;41327;45.102;20.624;2022-09-28T05:44:55;4.65;;;2.72;;
55461;SDS011;41327;45.102;20.624;2022-09-28T05:47:22;4.00;;;2.92;;
55461;SDS011;41327;45.102;20.624;2022-09-28T05:49:48;6.85;;;3.47;;
55461;SDS011;41327;45.102;20.624;2022-09-28T05:52:14;5.30;;;2.95;;
55461;SDS011;41327;45.102;20.624;2022-09-28T05:54:39;4.78;;;3.05;;
55461;SDS011;41327;45.102;20.624;2022-09-28T05:57:05;5.70;;;3.38;;
55461;SDS011;41327;45.102;20.624;2022-09-28T05:59:31;9.35;;;3.70;;
55461;SDS011;41327;45.102;20.624;2022-09-28T06:01:59;6.88;;;3.28;;
55461;SDS011;41327;45.102;20.624;2022-09-28T06:04:24;5.35;;;3.28;;
55461;SDS011;41327;45.102;20.624;2022-09-28T06:06:50;7.93;;;4.78;;
55461;SDS011;41327;45.102;20.624;2022-09-28T06:09:16;5.47;;;4.35;;
55461;SDS011;41327;45.102;20.624;2022-09-28T06:11:41;4.72;;;4.00;;
55461;SDS011;41327;45.102;20.624;2022-09-28T06:14:07;5.00;;;3.50;;
55461;SDS011;41327;45.102;20.624;2022-09-28T06:16:32;7.93;;;3.88;;
55461;SDS011;41327;45.102;20.624;2022-09-28T06:18:59;4.60;;;3.17;;
55461;SDS011;41327;45.102;20.624;2022-09-28T06:21:25;5.63;;;2.78;;
55461;SDS011;41327;45.102;20.624;2022-09-28T06:23:50;4.13;;;2.42;;
55461;SDS011;41327;45.102;20.624;2022-09-28T06:26:16;3.38;;;2.38;;
55461;SDS011;41327;45.102;20.624;2022-09-28T06:28:42;3.03;;;2.10;;
55461;SDS011;41327;45.102;20.624;2022-09-28T06:31:07;3.42;;;2.30;;
55461;SDS011;41327;45.102;20.624;2022-09-28T06:33:33;3.58;;;2.78;;
55461;SDS011;41327;45.102;20.624;2022-09-28T06:36:00;4.75;;;2.70;;
55461;SDS011;41327;45.102;20.624;2022-09-28T06:38:25;3.47;;;2.83;;
55461;SDS011;41327;45.102;20.624;2022-09-28T06:40:51;3.65;;;2.65;;
55461;SDS011;41327;45.102;20.624;2022-09-28T06:43:17;11.15;;;2.90;;
55461;SDS011;41327;45.102;20.624;2022-09-28T06:45:43;3.47;;;2.25;;
55461;SDS011;41327;45.102;20.624;2022-09-28T06:48:14;7.15;;;2.80;;
55461;SDS011;41327;45.102;20.624;2022-09-28T06:50:40;5.60;;;2.90;;
55461;SDS011;41327;45.102;20.624;2022-09-28T06:53:07;5.38;;;2.83;;
55461;SDS011;41327;45.102;20.624;2022-09-28T06:55:37;4.05;;;2.70;;
55461;SDS011;41327;45.102;20.624;2022-09-28T06:58:10;4.07;;;2.47;;
55461;SDS011;41327;45.102;20.624;2022-09-28T07:00:37;3.63;;;2.45;;
55461;SDS011;41327;45.102;20.624;2022-09-28T07:03:04;4.18;;;2.38;;
55461;SDS011;41327;45.102;20.624;2022-09-28T07:05:35;4.97;;;2.70;;
55461;SDS011;41327;45.102;20.624;2022-09-28T07:08:05;3.35;;;2.95;;
55461;SDS011;41327;45.102;20.624;2022-09-28T07:10:31;10.50;;;5.95;;
55461;SDS011;41327;45.102;20.624;2022-09-28T07:12:59;7.88;;;4.15;;
55461;SDS011;41327;45.102;20.624;2022-09-28T07:15:29;11.93;;;4.68;;
55461;SDS011;41327;45.102;20.624;2022-09-28T07:17:58;5.35;;;3.80;;
55461;SDS011;41327;45.102;20.624;2022-09-28T07:20:25;4.50;;;2.97;;
55461;SDS011;41327;45.102;20.624;2022-09-28T07:22:56;5.47;;;3.40;;
55461;SDS011;41327;45.102;20.624;2022-09-28T07:25:23;5.05;;;3.20;;
55461;SDS011;41327;45.102;20.624;2022-09-28T07:27:50;9.20;;;3.70;;
55461;SDS011;41327;45.102;20.624;2022-09-28T07:30:15;9.13;;;3.40;;
55461;SDS011;41327;45.102;20.624;2022-09-28T07:32:41;4.43;;;2.97;;
55461;SDS011;41327;45.102;20.624;2022-09-28T07:35:09;3.95;;;3.00;;
55461;SDS011;41327;45.102;20.624;2022-09-28T07:37:35;4.43;;;2.78;;
55461;SDS011;41327;45.102;20.624;2022-09-28T07:40:02;3.63;;;2.17;;
55461;SDS011;41327;45.102;20.624;2022-09-28T07:42:47;6.78;;;2.40;;
55461;SDS011;41327;45.102;20.624;2022-09-28T07:45:12;7.15;;;1.98;;
55461;SDS011;41327;45.102;20.624;2022-09-28T07:47:38;4.60;;;1.85;;
55461;SDS011;41327;45.102;20.624;2022-09-28T07:50:04;8.75;;;2.33;;
55461;SDS011;41327;45.102;20.624;2022-09-28T07:52:30;2.72;;;2.20;;
55461;SDS011;41327;45.102;20.624;2022-09-28T07:54:55;5.88;;;2.10;;
55461;SDS011;41327;45.102;20.624;2022-09-28T07:57:21;4.97;;;2.72;;
55461;SDS011;41327;45.102;20.624;2022-09-28T07:59:48;5.60;;;2.13;;
55461;SDS011;41327;45.102;20.624;2022-09-28T08:02:14;3.60;;;1.90;;
55461;SDS011;41327;45.102;20.624;2022-09-28T08:04:47;3.65;;;1.83;;
55461;SDS011;41327;45.102;20.624;2022-09-28T08:07:13;8.05;;;2.40;;
55461;SDS011;41327;45.102;20.624;2022-09-28T08:09:42;6.65;;;3.08;;
55461;SDS011;41327;45.102;20.624;2022-09-28T08:12:08;2.88;;;2.15;;
55461;SDS011;41327;45.102;20.624;2022-09-28T08:14:34;3.45;;;2.53;;
55461;SDS011;41327;45.102;20.624;2022-09-28T08:17:00;5.38;;;2.80;;
55461;SDS011;41327;45.102;20.624;2022-09-28T08:19:26;4.47;;;3.45;;
55461;SDS011;41327;45.102;20.624;2022-09-28T08:22:11;3.85;;;2.05;;
55461;SDS011;41327;45.102;20.624;2022-09-28T08:24:37;3.80;;;2.13;;
55461;SDS011;41327;45.102;20.624;2022-09-28T08:27:03;3.25;;;1.77;;
55461;SDS011;41327;45.102;20.624;2022-09-28T08:29:29;2.78;;;1.95;;
55461;SDS011;41327;45.102;20.624;2022-09-28T08:31:56;3.38;;;1.75;;
55461;SDS011;41327;45.102;20.624;2022-09-28T08:34:23;3.03;;;2.08;;
55461;SDS011;41327;45.102;20.624;2022-09-28T08:36:49;3.47;;;2.22;;
55461;SDS011;41327;45.102;20.624;2022-09-28T08:39:14;2.65;;;2.05;;
55461;SDS011;41327;45.102;20.624;2022-09-28T08:41:44;3.03;;;2.17;;
55461;SDS011;41327;45.102;20.624;2022-09-28T08:46:46;4.50;;;1.88;;
55461;SDS011;41327;45.102;20.624;2022-09-28T08:54:54;2.15;;;1.40;;
55461;SDS011;41327;45.102;20.624;2022-09-28T08:57:32;2.95;;;1.50;;
55461;SDS011;41327;45.102;20.624;2022-09-28T09:00:03;2.75;;;1.25;;
55461;SDS011;41327;45.102;20.624;2022-09-28T09:02:30;2.45;;;1.17;;
55461;SDS011;41327;45.102;20.624;2022-09-28T09:04:58;2.95;;;1.63;;
55461;SDS011;41327;45.102;20.624;2022-09-28T09:07:31;2.75;;;1.17;;
55461;SDS011;41327;45.102;20.624;2022-09-28T09:12:59;4.00;;;1.40;;
55461;SDS011;41327;45.102;20.624;2022-09-28T09:15:50;1.90;;;1.45;;
55461;SDS011;41327;45.102;20.624;2022-09-28T09:23:55;2.20;;;1.20;;
55461;SDS011;41327;45.102;20.624;2022-09-28T09:26:37;2.45;;;1.13;;
55461;SDS011;41327;45.102;20.624;2022-09-28T09:43:56;1.80;;;1.42;;
55461;SDS011;41327;45.102;20.624;2022-09-28T09:49:07;2.13;;;1.52;;
55461;SDS011;41327;45.102;20.624;2022-09-28T09:51:47;2.80;;;1.40;;
55461;SDS011;41327;45.102;20.624;2022-09-28T09:56:53;2.53;;;1.38;;
55461;SDS011;41327;45.102;20.624;2022-09-28T09:59:41;2.63;;;1.85;;
55461;SDS011;41327;45.102;20.624;2022-09-28T10:02:16;2.35;;;1.63;;
55461;SDS011;41327;45.102;20.624;2022-09-28T10:04:43;3.22;;;1.55;;
55461;SDS011;41327;45.102;20.624;2022-09-28T10:07:22;1.67;;;1.30;;
55461;SDS011;41327;45.102;20.624;2022-09-28T10:09:49;1.88;;;1.40;;
55461;SDS011;41327;45.102;20.624;2022-09-28T10:12:18;1.95;;;1.50;;
55461;SDS011;41327;45.102;20.624;2022-09-28T10:14:45;3.47;;;2.25;;
55461;SDS011;41327;45.102;20.624;2022-09-28T10:17:11;1.70;;;1.55;;
55461;SDS011;41327;45.102;20.624;2022-09-28T10:19:39;1.92;;;1.30;;
55461;SDS011;41327;45.102;20.624;2022-09-28T10:22:04;1.30;;;1.10;;
55461;SDS011;41327;45.102;20.624;2022-09-28T10:27:13;2.35;;;1.17;;
55461;SDS011;41327;45.102;20.624;2022-09-28T10:32:37;1.83;;;1.00;;
55461;SDS011;41327;45.102;20.624;2022-09-28T10:36:04;2.30;;;1.05;;
55461;SDS011;41327;45.102;20.624;2022-09-28T10:38:06;2.90;;;1.17;;
55461;SDS011;41327;45.102;20.624;2022-09-28T10:40:45;2.53;;;1.00;;
55461;SDS011;41327;45.102;20.624;2022-09-28T10:46:10;1.50;;;1.00;;
55461;SDS011;41327;45.102;20.624;2022-09-28T10:48:49;1.70;;;1.10;;
55461;SDS011;41327;45.102;20.624;2022-09-28T10:51:56;1.90;;;1.10;;
55461;SDS011;41327;45.102;20.624;2022-09-28T10:54:22;2.17;;;0.95;;
55461;SDS011;41327;45.102;20.624;2022-09-28T10:56:50;1.00;;;0.88;;
55461;SDS011;41327;45.102;20.624;2022-09-28T11:04:22;1.20;;;0.85;;
55461;SDS011;41327;45.102;20.624;2022-09-28T11:06:50;1.23;;;0.90;;
55461;SDS011;41327;45.102;20.624;2022-09-28T11:09:27;2.20;;;0.80;;
55461;SDS011;41327;45.102;20.624;2022-09-28T11:11:54;1.75;;;0.63;;
55461;SDS011;41327;45.102;20.624;2022-09-28T11:16:46;2.15;;;0.70;;
55461;SDS011;41327;45.102;20.624;2022-09-28T11:21:44;0.85;;;0.70;;
55461;SDS011;41327;45.102;20.624;2022-09-28T11:26:43;1.77;;;0.73;;
55461;SDS011;41327;45.102;20.624;2022-09-28T11:29:23;0.68;;;0.60;;
55461;SDS011;41327;45.102;20.624;2022-09-28T11:31:51;0.70;;;0.60;;
55461;SDS011;41327;45.102;20.624;2022-09-28T11:34:21;1.73;;;0.70;;
55461;SDS011;41327;45.102;20.624;2022-09-28T11:44:53;1.20;;;0.90;;
55461;SDS011;41327;45.102;20.624;2022-09-28T11:53:30;2.05;;;0.82;;
55461;SDS011;41327;45.102;20.624;2022-09-28T11:58:52;0.68;;;0.68;;
55461;SDS011;41327;45.102;20.624;2022-09-28T12:01:26;1.27;;;0.80;;
55461;SDS011;41327;45.102;20.624;2022-09-28T12:04:11;1.27;;;1.08;;
55461;SDS011;41327;45.102;20.624;2022-09-28T12:06:58;1.02;;;0.95;;
55461;SDS011;41327;45.102;20.624;2022-09-28T12:09:42;3.80;;;1.00;;
55461;SDS011;41327;45.102;20.624;2022-09-28T12:12:16;1.00;;;0.73;;
55461;SDS011;41327;45.102;20.624;2022-09-28T12:14:46;2.35;;;1.17;;
55461;SDS011;41327;45.102;20.624;2022-09-28T12:20:28;1.40;;;1.00;;
55461;SDS011;41327;45.102;20.624;2022-09-28T12:25:23;2.92;;;1.13;;
55461;SDS011;41327;45.102;20.624;2022-09-28T12:27:52;1.38;;;1.10;;
55461;SDS011;41327;45.102;20.624;2022-09-28T12:30:20;4.53;;;1.85;;
55461;SDS011;41327;45.102;20.624;2022-09-28T12:32:57;2.28;;;1.60;;
55461;SDS011;41327;45.102;20.624;2022-09-28T12:35:42;1.90;;;1.63;;
55461;SDS011;41327;45.102;20.624;2022-09-28T12:44:06;2.58;;;1.90;;
55461;SDS011;41327;45.102;20.624;2022-09-28T12:52:26;5.10;;;2.50;;
55461;SDS011;41327;45.102;20.624;2022-09-28T12:55:33;4.85;;;2.40;;
55461;SDS011;41327;45.102;20.624;2022-09-28T13:01:10;4.07;;;3.35;;
55461;SDS011;41327;45.102;20.624;2022-09-28T13:14:24;4.90;;;3.53;;
55461;SDS011;41327;45.102;20.624;2022-09-28T13:25:38;5.28;;;3.65;;
55461;SDS011;41327;45.102;20.624;2022-09-28T13:28:08;6.65;;;3.97;;
55461;SDS011;41327;45.102;20.624;2022-09-28T13:30:37;5.13;;;3.55;;
55461;SDS011;41327;45.102;20.624;2022-09-28T13:33:03;4.63;;;3.25;;
55461;SDS011;41327;45.102;20.624;2022-09-28T13:35:30;6.00;;;3.45;;
55461;SDS011;41327;45.102;20.624;2022-09-28T13:49:48;5.60;;;3.80;;
55461;SDS011;41327;45.102;20.624;2022-09-28T13:58:18;4.95;;;3.20;;
55461;SDS011;41327;45.102;20.624;2022-09-28T14:00:58;6.03;;;3.35;;
55461;SDS011;41327;45.102;20.624;2022-09-28T14:03:43;4.00;;;2.50;;
55461;SDS011;41327;45.102;20.624;2022-09-28T14:06:35;5.05;;;2.92;;
55461;SDS011;41327;45.102;20.624;2022-09-28T14:12:25;5.10;;;2.83;;
55461;SDS011;41327;45.102;20.624;2022-09-28T14:20:36;5.13;;;2.88;;
55461;SDS011;41327;45.102;20.624;2022-09-28T14:34:47;4.90;;;3.10;;
55461;SDS011;41327;45.102;20.624;2022-09-28T14:37:21;4.28;;;2.83;;
55461;SDS011;41327;45.102;20.624;2022-09-28T14:40:15;5.13;;;3.30;;
55461;SDS011;41327;45.102;20.624;2022-09-28T14:44:02;6.10;;;3.30;;
55461;SDS011;41327;45.102;20.624;2022-09-28T14:48:47;7.25;;;3.42;;
55461;SDS011;41327;45.102;20.624;2022-09-28T14:53:55;5.78;;;3.53;;
55461;SDS011;41327;45.102;20.624;2022-09-28T14:56:30;6.63;;;3.58;;
55461;SDS011;41327;45.102;20.624;2022-09-28T14:59:22;9.30;;;4.32;;
55461;SDS011;41327;45.102;20.624;2022-09-28T15:04:28;6.75;;;4.15;;
55461;SDS011;41327;45.102;20.624;2022-09-28T15:06:54;7.32;;;3.67;;
55461;SDS011;41327;45.102;20.624;2022-09-28T15:09:29;5.97;;;4.05;;
55461;SDS011;41327;45.102;20.624;2022-09-28T15:12:02;5.55;;;4.30;;
55461;SDS011;41327;45.102;20.624;2022-09-28T15:14:40;8.05;;;4.45;;
55461;SDS011;41327;45.102;20.624;2022-09-28T15:17:08;7.47;;;4.47;;
55461;SDS011;41327;45.102;20.624;2022-09-28T15:22:18;7.50;;;4.70;;
55461;SDS011;41327;45.102;20.624;2022-09-28T15:24:54;8.38;;;5.60;;
55461;SDS011;41327;45.102;20.624;2022-09-28T15:27:21;9.48;;;5.20;;
55461;SDS011;41327;45.102;20.624;2022-09-28T15:30:22;6.63;;;4.82;;
55461;SDS011;41327;45.102;20.624;2022-09-28T15:32:47;6.43;;;4.47;;
55461;SDS011;41327;45.102;20.624;2022-09-28T15:35:26;7.45;;;5.25;;
55461;SDS011;41327;45.102;20.624;2022-09-28T15:37:52;7.20;;;5.25;;
55461;SDS011;41327;45.102;20.624;2022-09-28T15:40:37;9.90;;;5.43;;
55461;SDS011;41327;45.102;20.624;2022-09-28T15:43:18;7.43;;;5.30;;
55461;SDS011;41327;45.102;20.624;2022-09-28T15:45:44;6.43;;;5.15;;
55461;SDS011;41327;45.102;20.624;2022-09-28T15:48:26;7.45;;;5.40;;
55461;SDS011;41327;45.102;20.624;2022-09-28T15:51:03;7.13;;;5.80;;
55461;SDS011;41327;45.102;20.624;2022-09-28T15:53:41;7.45;;;5.75;;
55461;SDS011;41327;45.102;20.624;2022-09-28T15:56:20;10.88;;;6.50;;
55461;SDS011;41327;45.102;20.624;2022-09-28T15:58:54;8.32;;;6.43;;
55461;SDS011;41327;45.102;20.624;2022-09-28T16:01:37;8.60;;;5.63;;
55461;SDS011;41327;45.102;20.624;2022-09-28T16:09:55;9.23;;;6.10;;
55461;SDS011;41327;45.102;20.624;2022-09-28T16:12:48;9.25;;;6.72;;
55461;SDS011;41327;45.102;20.624;2022-09-28T16:18:00;9.68;;;6.88;;
55461;SDS011;41327;45.102;20.624;2022-09-28T16:20:28;11.60;;;7.85;;
55461;SDS011;41327;45.102;20.624;2022-09-28T16:22:56;8.50;;;6.78;;
55461;SDS011;41327;45.102;20.624;2022-09-28T16:25:29;7.78;;;6.43;;
55461;SDS011;41327;45.102;20.624;2022-09-28T16:27:56;11.63;;;7.20;;
55461;SDS011;41327;45.102;20.624;2022-09-28T16:30:22;10.10;;;7.57;;
55461;SDS011;41327;45.102;20.624;2022-09-28T16:35:19;12.05;;;7.35;;
55461;SDS011;41327;45.102;20.624;2022-09-28T16:40:25;12.88;;;7.90;;
55461;SDS011;41327;45.102;20.624;2022-09-28T16:42:51;13.52;;;8.05;;
55461;SDS011;41327;45.102;20.624;2022-09-28T16:45:19;8.38;;;7.00;;
55461;SDS011;41327;45.102;20.624;2022-09-28T16:47:47;9.23;;;7.55;;
55461;SDS011;41327;45.102;20.624;2022-09-28T16:50:17;8.95;;;7.07;;
55461;SDS011;41327;45.102;20.624;2022-09-28T16:52:48;9.27;;;7.43;;
55461;SDS011;41327;45.102;20.624;2022-09-28T16:55:49;11.10;;;7.45;;
55461;SDS011;41327;45.102;20.624;2022-09-28T16:58:14;15.25;;;8.73;;
55461;SDS011;41327;45.102;20.624;2022-09-28T17:00:40;11.77;;;8.35;;
55461;SDS011;41327;45.102;20.624;2022-09-28T17:03:11;11.75;;;8.35;;
55461;SDS011;41327;45.102;20.624;2022-09-28T17:05:41;10.90;;;9.68;;
55461;SDS011;41327;45.102;20.624;2022-09-28T17:08:07;33.08;;;20.88;;
55461;SDS011;41327;45.102;20.624;2022-09-28T17:10:40;39.78;;;24.88;;
55461;SDS011;41327;45.102;20.624;2022-09-28T17:13:19;24.52;;;18.35;;
55461;SDS011;41327;45.102;20.624;2022-09-28T17:15:47;24.25;;;16.70;;
55461;SDS011;41327;45.102;20.624;2022-09-28T17:18:14;19.27;;;13.05;;
55461;SDS011;41327;45.102;20.624;2022-09-28T17:20:41;15.63;;;10.77;;
55461;SDS011;41327;45.102;20.624;2022-09-28T17:23:08;9.77;;;8.00;;
55461;SDS011;41327;45.102;20.624;2022-09-28T17:25:34;8.82;;;7.45;;
55461;SDS011;41327;45.102;20.624;2022-09-28T17:28:00;9.00;;;7.57;;
55461;SDS011;41327;45.102;20.624;2022-09-28T17:30:26;9.80;;;7.45;;
55461;SDS011;41327;45.102;20.624;2022-09-28T17:32:51;10.32;;;8.70;;
55461;SDS011;41327;45.102;20.624;2022-09-28T17:35:17;9.98;;;8.13;;
55461;SDS011;41327;45.102;20.624;2022-09-28T17:37:43;10.30;;;7.75;;
55461;SDS011;41327;45.102;20.624;2022-09-28T17:40:20;11.20;;;8.70;;
55461;SDS011;41327;45.102;20.624;2022-09-28T17:42:49;10.55;;;7.72;;
55461;SDS011;41327;45.102;20.624;2022-09-28T17:45:19;10.05;;;7.78;;
55461;SDS011;41327;45.102;20.624;2022-09-28T17:47:44;8.93;;;7.50;;
55461;SDS011;41327;45.102;20.624;2022-09-28T17:50:26;9.13;;;7.82;;
55461;SDS011;41327;45.102;20.624;2022-09-28T17:52:53;9.20;;;7.90;;
55461;SDS011;41327;45.102;20.624;2022-09-28T17:57:51;9.45;;;7.97;;
55461;SDS011;41327;45.102;20.624;2022-09-28T18:00:17;9.65;;;8.00;;
55461;SDS011;41327;45.102;20.624;2022-09-28T18:02:42;10.63;;;7.72;;
55461;SDS011;41327;45.102;20.624;2022-09-28T18:05:09;10.70;;;8.07;;
55461;SDS011;41327;45.102;20.624;2022-09-28T18:07:42;17.15;;;8.55;;
55461;SDS011;41327;45.102;20.624;2022-09-28T18:10:12;11.50;;;9.15;;
55461;SDS011;41327;45.102;20.624;2022-09-28T18:12:39;11.02;;;9.43;;
55461;SDS011;41327;45.102;20.624;2022-09-28T18:15:04;10.93;;;8.95;;
55461;SDS011;41327;45.102;20.624;2022-09-28T18:17:30;11.57;;;9.25;;
55461;SDS011;41327;45.102;20.624;2022-09-28T18:19:57;17.88;;;10.02;;
55461;SDS011;41327;45.102;20.624;2022-09-28T18:22:22;15.20;;;9.55;;
55461;SDS011;41327;45.102;20.624;2022-09-28T18:24:48;14.52;;;9.32;;
55461;SDS011;41327;45.102;20.624;2022-09-28T18:27:13;14.57;;;9.63;;
55461;SDS011;41327;45.102;20.624;2022-09-28T18:29:39;12.40;;;8.75;;
55461;SDS011;41327;45.102;20.624;2022-09-28T18:32:04;21.05;;;9.50;;
55461;SDS011;41327;45.102;20.624;2022-09-28T18:34:33;11.77;;;9.40;;